Thursday, November 23, 2017, 7:24 PM EST
Back to Local

KILG, Wilmington New Castle Co

Location: New Castle, DE, United States Lat: 39.667
Local Time: 7:24 PM EST ( 0:24 GMT) Lon: -75.6
Time Zone: US/Eastern Elev: 78 ft

Show me the last for .
Show Decoded

2017-11-23 18:51 METAR KILG 232351Z 00000KT 10SM CLR 02/M06 A3007 RMK AO2 SLP182 T00171056 10061
                 20017 50001 =
2017-11-23 17:51 METAR KILG 232251Z 00000KT 10SM CLR 03/M06 A3007 RMK AO2 SLP185 T00281056 =
2017-11-23 16:51 METAR KILG 232151Z 31005KT 10SM CLR 03/M06 A3006 RMK AO2 SLP179 T00281061 =
2017-11-23 15:51 METAR KILG 232051Z 27007KT 10SM CLR 05/M07 A3006 RMK AO2 SLP181 T00501067 58011
                 =
2017-11-23 14:51 METAR KILG 231951Z 31007KT 10SM CLR 06/M07 A3007 RMK AO2 SLP184 T00561067 =
2017-11-23 13:51 METAR KILG 231851Z 32008KT 10SM CLR 06/M07 A3009 RMK AO2 SLP188 T00611067 =
2017-11-23 12:51 METAR KILG 231751Z 35007KT 10SM CLR 06/M06 A3010 RMK AO2 SLP192 T00561061 10061
                 21028 58024 =
2017-11-23 11:51 METAR KILG 231651Z 34007KT 10SM CLR 06/M06 A3011 RMK AO2 SLP198 T00561061 =
2017-11-23 10:51 METAR KILG 231551Z 33008KT 10SM CLR 04/M06 A3015 RMK AO2 SLP210 T00391061 =
2017-11-23 09:51 METAR KILG 231451Z 31006KT 10SM CLR 03/M06 A3017 RMK AO2 SLP216 T00281061 50000
                 =
2017-11-23 08:51 METAR KILG 231351Z 32005KT 10SM CLR 01/M06 A3019 RMK AO2 SLP222 T00111056 =
2017-11-23 07:51 METAR KILG 231251Z 28004KT 10SM CLR M01/M05 A3018 RMK AO2 SLP221 T10111050 =
2017-11-23 06:51 METAR KILG 231151Z 26005KT 10SM CLR M03/M06 A3017 RMK AO2 SLP216 T10281061 10006
                 21033 51006 =
2017-11-23 05:51 METAR KILG 231051Z AUTO 30004KT 10SM CLR M03/M07 A3016 RMK AO2 SLP213 T10331067
                 =
2017-11-23 04:51 METAR KILG 230951Z AUTO 25004KT 10SM CLR M01/M06 A3016 RMK AO2 SLP212 T10111061
                 =
2017-11-23 03:51 METAR KILG 230851Z AUTO 32003KT 10SM CLR M01/M06 A3015 RMK AO2 SLP210 T10061061
                 53006 =
2017-11-23 02:51 METAR KILG 230751Z AUTO 33007KT 10SM CLR M01/M06 A3014 RMK AO2 SLP206 T10111061
                 =
2017-11-23 01:51 METAR KILG 230651Z AUTO 32005KT 10SM CLR M01/M06 A3014 RMK AO2 SLP205 T10111061
                 =
2017-11-23 00:51 METAR KILG 230551Z AUTO 32010KT 10SM CLR 01/M06 A3013 RMK AO2 SLP203 T00061056
                 10061 20000 58005 =
2017-11-22 23:51 METAR KILG 230451Z AUTO 31009KT 10SM CLR 00/M05 A3015 RMK AO2 SLP210 T00001050
                 401390000 =
2017-11-22 22:51 METAR KILG 230351Z 30008KT 10SM CLR 02/M05 A3016 RMK AO2 SLP211 T00171050 =
2017-11-22 21:51 METAR KILG 230251Z 31009KT 10SM CLR 03/M04 A3015 RMK AO2 SLP208 T00281044 51016
                 =
2017-11-22 20:51 METAR KILG 230151Z 33010KT 10SM CLR 04/M04 A3013 RMK AO2 SLP201 T00391044 =
2017-11-22 19:51 METAR KILG 230051Z 32010KT 10SM FEW046 04/M04 A3012 RMK AO2 SLP198 T00441039 =

Support USWX by starting your Amazon purchase here.